Time;durP1;ratioP1;P1;durP2;ratioP2;P2;SDS_P1;SDS_P2;PMS_P1;PMS_P2;Temp;Humidity;BMP_temperature;BMP_pressure;BME280_temperature;BME280_humidity;BME280_pressure;Samples;Min_cycle;Max_cycle;Signal;HPM_P1;HPM_P2
2022/05/18 00:00:27;;;;;;;104.93;98.55;;;18.00;99.90;;;;;;5135540;27;20408;-62
2022/05/18 00:02:55;;;;;;;78.03;72.68;;;17.90;99.90;;;;;;5135330;27;20035;-62
2022/05/18 00:05:20;;;;;;;88.03;82.10;;;17.90;99.90;;;;;;5134876;27;20043;-62
2022/05/18 00:07:46;;;;;;;79.07;73.35;;;17.90;99.90;;;;;;5135215;27;20039;-61
2022/05/18 00:10:12;;;;;;;81.28;75.78;;;17.90;99.90;;;;;;5135511;27;20052;-62
2022/05/18 00:12:43;;;;;;;85.53;79.18;;;17.80;99.90;;;;;;5112552;28;20052;-62
2022/05/18 00:15:10;;;;;;;93.18;86.47;;;17.80;99.90;;;;;;5114624;28;20044;-62
2022/05/18 00:17:36;;;;;;;81.95;76.25;;;17.80;99.90;;;;;;5114855;28;20043;-62
2022/05/18 00:20:02;;;;;;;86.43;80.22;;;17.70;99.90;;;;;;5115006;28;20111;-62
2022/05/18 00:22:28;;;;;;;83.68;77.80;;;17.70;99.90;;;;;;5135352;27;20038;-62
2022/05/18 00:24:53;;;;;;;93.50;87.28;;;17.70;99.90;;;;;;5135122;27;20516;-62
2022/05/18 00:27:19;;;;;;;95.32;88.28;;;17.60;99.90;;;;;;5134318;27;20066;-62
2022/05/18 00:29:45;;;;;;;94.15;87.72;;;17.60;99.90;;;;;;5134654;27;20500;-62
2022/05/18 00:32:11;;;;;;;89.20;82.93;;;17.60;99.90;;;;;;5134839;27;20083;-61
2022/05/18 00:34:36;;;;;;;93.68;86.95;;;17.50;99.90;;;;;;5134121;27;20077;-62
2022/05/18 00:37:02;;;;;;;93.68;87.22;;;17.50;99.90;;;;;;5135102;27;20074;-62
2022/05/18 00:39:28;;;;;;;89.88;83.35;;;17.40;99.90;;;;;;5112289;28;20577;-62
2022/05/18 00:41:54;;;;;;;100.30;93.50;;;17.40;99.90;;;;;;5113718;28;20108;-62
2022/05/18 00:44:21;;;;;;;109.53;102.00;;;17.40;99.90;;;;;;5132878;27;20111;-61
2022/05/18 00:46:47;;;;;;;103.07;95.97;;;17.30;99.90;;;;;;5133355;27;20054;-61
2022/05/18 00:49:12;;;;;;;90.32;83.38;;;17.30;99.90;;;;;;5134430;27;20043;-62
2022/05/18 00:51:53;;;;;;;84.93;78.32;;;17.30;99.90;;;;;;5134842;27;20043;-62
2022/05/18 00:54:28;;;;;;;109.93;102.45;;;17.20;99.90;;;;;;5133699;27;20047;-62
2022/05/18 00:57:08;;;;;;;128.98;120.28;;;17.20;99.90;;;;;;5112348;28;20100;-62
2022/05/18 00:59:42;;;;;;;158.43;148.68;;;17.20;99.90;;;;;;5130592;27;20047;-62
2022/05/18 01:02:09;;;;;;;148.77;139.35;;;17.10;99.90;;;;;;5098632;27;20115;-62
2022/05/18 01:04:35;;;;;;;144.80;135.75;;;17.10;99.90;;;;;;5134115;27;20043;-62
2022/05/18 01:07:04;;;;;;;154.25;144.60;;;17.00;99.90;;;;;;5133171;27;20499;-62
2022/05/18 01:09:40;;;;;;;130.25;122.03;;;17.00;99.90;;;;;;5133519;27;20442;-61
2022/05/18 01:12:08;;;;;;;85.55;79.13;;;17.00;99.90;;;;;;5134254;27;20055;-61
2022/05/18 01:14:39;;;;;;;84.22;77.72;;;17.00;99.90;;;;;;5133757;27;20441;-61
2022/05/18 01:17:06;;;;;;;76.60;70.82;;;17.00;99.90;;;;;;5133744;27;20074;-61
2022/05/18 01:19:38;;;;;;;73.20;67.47;;;17.00;99.90;;;;;;5134395;27;20445;-61
2022/05/18 01:22:09;;;;;;;76.43;70.68;;;17.00;99.90;;;;;;5114453;27;20552;-61
2022/05/18 01:24:54;;;;;;;75.80;69.55;;;17.00;99.90;;;;;;5134338;27;20495;-61
2022/05/18 01:27:20;;;;;;;75.53;69.32;;;16.90;99.90;;;;;;5115944;27;20051;-61
2022/05/18 01:29:46;;;;;;;75.53;69.63;;;16.90;99.90;;;;;;5114203;27;20403;-61
2022/05/18 01:32:15;;;;;;;74.20;68.20;;;16.90;99.90;;;;;;5111949;28;20050;-61
2022/05/18 01:34:42;;;;;;;74.38;68.50;;;16.90;99.90;;;;;;5113578;28;20508;-61
2022/05/18 01:37:10;;;;;;;73.18;67.43;;;16.70;99.90;;;;;;5112298;28;20134;-61
2022/05/18 01:39:48;;;;;;;73.43;67.50;;;16.80;99.90;;;;;;5095183;28;20490;-61
2022/05/18 01:42:19;;;;;;;73.43;67.82;;;16.80;99.90;;;;;;5133751;27;20541;-61
2022/05/18 01:44:45;;;;;;;76.78;71.07;;;16.70;99.90;;;;;;5132996;27;20488;-61
2022/05/18 01:47:11;;;;;;;73.43;67.72;;;16.70;99.90;;;;;;5115284;28;20047;-61
2022/05/18 01:49:39;;;;;;;73.40;67.90;;;16.70;99.90;;;;;;5133137;28;20050;-61
2022/05/18 01:52:07;;;;;;;75.63;69.45;;;16.70;99.90;;;;;;5132795;28;20035;-61
2022/05/18 01:54:37;;;;;;;73.07;67.35;;;16.60;99.90;;;;;;5133965;28;20043;-61
2022/05/18 01:57:03;;;;;;;73.30;67.80;;;16.50;99.90;;;;;;5132561;28;20047;-61
2022/05/18 01:59:29;;;;;;;70.85;65.57;;;16.50;99.90;;;;;;5132759;28;20051;-61
2022/05/18 02:01:55;;;;;;;73.75;68.20;;;16.50;99.90;;;;;;5098435;28;20090;-61
2022/05/18 02:04:21;;;;;;;70.53;64.93;;;16.40;99.90;;;;;;5132541;28;20504;-61
2022/05/18 02:06:47;;;;;;;74.80;69.32;;;16.40;99.90;;;;;;5114197;28;20043;-61
2022/05/18 02:09:16;;;;;;;72.47;67.18;;;16.30;99.90;;;;;;5132962;28;20039;-61
2022/05/18 02:11:43;;;;;;;71.28;65.70;;;16.30;99.90;;;;;;5132282;28;20118;-60
2022/05/18 02:14:09;;;;;;;71.45;66.20;;;16.20;99.90;;;;;;5132804;28;20154;-61
2022/05/18 02:16:36;;;;;;;68.68;63.05;;;16.20;99.90;;;;;;5132686;28;20393;-61
2022/05/18 02:19:02;;;;;;;68.70;63.25;;;16.20;99.90;;;;;;5135449;27;20043;-61
2022/05/18 02:21:28;;;;;;;64.57;59.65;;;16.10;99.90;;;;;;5137036;27;20043;-61
2022/05/18 02:23:54;;;;;;;61.83;57.17;;;16.10;99.90;;;;;;5118652;27;20107;-61
2022/05/18 02:26:21;;;;;;;60.58;55.78;;;16.00;99.90;;;;;;5136804;27;20070;-61
2022/05/18 02:28:47;;;;;;;61.22;56.53;;;15.90;99.90;;;;;;5137280;27;20172;-61
2022/05/18 02:31:14;;;;;;;59.28;54.58;;;15.90;99.90;;;;;;5137186;27;20039;-61
2022/05/18 02:33:40;;;;;;;61.38;56.20;;;15.90;99.90;;;;;;5136337;27;20070;-61
2022/05/18 02:36:08;;;;;;;59.58;54.95;;;15.80;99.90;;;;;;5137145;27;20043;-61
2022/05/18 02:38:35;;;;;;;59.70;55.08;;;15.80;99.90;;;;;;5137348;27;20126;-61
2022/05/18 02:41:01;;;;;;;60.05;55.25;;;15.80;99.90;;;;;;5136518;27;20039;-61
2022/05/18 02:43:27;;;;;;;56.28;51.85;;;15.80;99.90;;;;;;5136459;27;20041;-61
2022/05/18 02:46:14;;;;;;;59.47;54.65;;;15.70;99.90;;;;;;5118884;27;20078;-61
2022/05/18 02:48:40;;;;;;;58.58;53.85;;;15.70;99.90;;;;;;5137218;27;20126;-61
2022/05/18 02:51:07;;;;;;;57.08;52.50;;;15.70;99.90;;;;;;5136540;27;20050;-61
2022/05/18 02:53:34;;;;;;;58.08;53.42;;;15.70;99.90;;;;;;5136417;27;20043;-61
2022/05/18 02:56:06;;;;;;;59.22;54.63;;;15.60;99.90;;;;;;5137178;27;20468;-61
2022/05/18 02:58:47;;;;;;;57.53;53.20;;;15.70;99.90;;;;;;5136476;27;20492;-61
2022/05/18 03:01:17;;;;;;;59.83;55.17;;;15.60;99.90;;;;;;5113912;28;20058;-61
2022/05/18 03:03:44;;;;;;;63.30;58.40;;;15.50;99.90;;;;;;5117227;27;20039;-61
2022/05/18 03:06:12;;;;;;;64.10;59.03;;;15.50;99.90;;;;;;5136334;27;20058;-61
2022/05/18 03:08:41;;;;;;;60.95;56.05;;;15.50;99.90;;;;;;5113893;28;20138;-61
2022/05/18 03:11:07;;;;;;;72.32;66.97;;;15.40;99.90;;;;;;5116136;27;20043;-61
2022/05/18 03:13:33;;;;;;;62.28;57.53;;;15.40;99.90;;;;;;5114480;28;20047;-61
2022/05/18 03:15:59;;;;;;;61.13;56.53;;;15.40;99.90;;;;;;5115397;28;20504;-61
2022/05/18 03:18:25;;;;;;;61.95;57.42;;;15.40;99.90;;;;;;5128752;27;20126;-61
2022/05/18 03:23:35;;;;;;;60.70;55.88;;;15.30;99.90;;;;;;5135586;27;20050;-61
2022/05/18 03:26:04;;;;;;;64.00;59.35;;;15.30;99.90;;;;;;5136160;27;20043;-62
2022/05/18 03:28:30;;;;;;;86.95;80.82;;;15.20;99.90;;;;;;5134911;27;20377;-61
2022/05/18 03:30:56;;;;;;;65.15;60.25;;;15.20;99.90;;;;;;5135140;27;20035;-61
2022/05/18 03:33:22;;;;;;;61.72;57.30;;;15.20;99.90;;;;;;5136247;27;20495;-61
2022/05/18 03:35:48;;;;;;;62.30;57.83;;;15.10;99.90;;;;;;5134698;27;20092;-61
2022/05/18 03:38:16;;;;;;;64.35;59.78;;;15.10;99.90;;;;;;5135927;27;20118;-61
2022/05/18 03:40:42;;;;;;;58.88;54.50;;;15.20;99.90;;;;;;5135862;27;20100;-61
2022/05/18 03:43:07;;;;;;;78.53;73.10;;;15.10;99.90;;;;;;5116464;27;20089;-61
2022/05/18 03:45:33;;;;;;;59.88;55.58;;;15.10;99.90;;;;;;5135742;27;20074;-61
2022/05/18 03:48:00;;;;;;;59.67;55.38;;;15.10;99.90;;;;;;5135856;27;20122;-61
2022/05/18 03:50:28;;;;;;;59.97;55.83;;;15.10;99.90;;;;;;5116256;27;20047;-61
2022/05/18 03:52:55;;;;;;;60.22;55.92;;;15.20;99.90;;;;;;5135759;27;20043;-61
2022/05/18 03:55:21;;;;;;;60.60;56.45;;;15.20;99.90;;;;;;5136012;27;20397;-61
2022/05/18 03:57:47;;;;;;;57.80;53.75;;;15.10;99.90;;;;;;5134739;27;20081;-61
2022/05/18 04:00:14;;;;;;;59.10;54.97;;;15.20;99.90;;;;;;5135840;27;20098;-61
2022/05/18 04:02:40;;;;;;;58.00;53.70;;;15.20;99.90;;;;;;5135408;27;20043;-61
2022/05/18 04:05:08;;;;;;;56.88;52.72;;;15.20;99.90;;;;;;5134155;27;20386;-61
2022/05/18 04:07:34;;;;;;;57.08;53.03;;;15.20;99.90;;;;;;5135873;27;20054;-61
2022/05/18 04:10:00;;;;;;;54.92;51.10;;;15.10;99.90;;;;;;5135274;27;20043;-61
2022/05/18 04:12:27;;;;;;;57.17;53.05;;;15.20;99.90;;;;;;5134259;27;20043;-61
2022/05/18 04:14:54;;;;;;;55.28;50.90;;;15.20;99.90;;;;;;5135337;27;20176;-61
2022/05/18 04:17:21;;;;;;;54.80;51.10;;;15.20;99.90;;;;;;5135353;27;20062;-61
2022/05/18 04:19:47;;;;;;;54.20;50.38;;;15.20;99.90;;;;;;5133763;27;20078;-61
2022/05/18 04:22:13;;;;;;;54.80;51.13;;;15.30;99.90;;;;;;5135423;27;20505;-61
2022/05/18 04:24:39;;;;;;;54.03;50.15;;;15.30;99.90;;;;;;5134801;27;20122;-61
2022/05/18 04:27:06;;;;;;;52.45;48.85;;;15.30;99.90;;;;;;5135066;27;20073;-61
2022/05/18 04:29:32;;;;;;;53.75;50.20;;;15.30;99.90;;;;;;5135091;27;20047;-61
2022/05/18 04:31:58;;;;;;;52.22;48.60;;;15.40;99.90;;;;;;5134108;27;20043;-61
2022/05/18 04:34:25;;;;;;;52.90;49.20;;;15.50;99.90;;;;;;5134462;27;20057;-61
2022/05/18 04:36:51;;;;;;;50.55;47.00;;;15.40;99.90;;;;;;5134471;27;20548;-61
2022/05/18 04:39:17;;;;;;;51.97;48.38;;;15.40;99.90;;;;;;5134122;27;20059;-61
2022/05/18 04:41:43;;;;;;;52.53;49.10;;;15.50;99.90;;;;;;5134532;27;20050;-61
2022/05/18 04:44:09;;;;;;;55.55;51.85;;;15.60;99.90;;;;;;5134652;27;20047;-61
2022/05/18 04:46:35;;;;;;;52.72;48.85;;;15.60;99.90;;;;;;5133643;27;20095;-61
2022/05/18 04:49:00;;;;;;;51.08;47.58;;;15.60;99.90;;;;;;5134438;27;20047;-61
2022/05/18 04:51:26;;;;;;;54.92;51.42;;;15.60;99.90;;;;;;5134901;27;20388;-61
2022/05/18 04:53:53;;;;;;;52.42;49.05;;;15.70;99.90;;;;;;5133791;27;20413;-61
2022/05/18 04:56:19;;;;;;;51.80;48.40;;;15.70;99.90;;;;;;5134326;27;20116;-61
2022/05/18 04:58:45;;;;;;;50.85;47.50;;;15.80;99.90;;;;;;5134687;27;20035;-61
2022/05/18 05:01:11;;;;;;;53.60;50.05;;;15.80;99.90;;;;;;5115308;27;20484;-61
2022/05/18 05:03:37;;;;;;;52.97;49.50;;;15.90;99.90;;;;;;5134007;27;20039;-61
2022/05/18 05:06:05;;;;;;;52.42;49.10;;;15.90;99.90;;;;;;5113617;28;20066;-61
2022/05/18 05:08:31;;;;;;;50.22;46.97;;;16.00;99.90;;;;;;5112767;28;20131;-61
2022/05/18 05:10:57;;;;;;;48.75;45.55;;;16.10;99.90;;;;;;5113882;28;20051;-61
2022/05/18 05:13:24;;;;;;;50.10;46.83;;;16.10;99.90;;;;;;5125774;27;20043;-61
2022/05/18 05:15:54;;;;;;;51.03;47.53;;;16.30;99.90;;;;;;5115016;27;20130;-61
2022/05/18 05:18:20;;;;;;;49.60;46.30;;;16.30;99.90;;;;;;5134250;27;20488;-61
2022/05/18 05:20:46;;;;;;;49.25;45.75;;;16.50;99.90;;;;;;5133490;27;20501;-61
2022/05/18 05:23:28;;;;;;;51.67;48.17;;;16.60;99.90;;;;;;5113551;28;20047;-61
2022/05/18 05:25:55;;;;;;;49.53;46.25;;;16.70;99.90;;;;;;5095308;28;20047;-61
2022/05/18 05:28:21;;;;;;;50.55;47.45;;;16.80;99.90;;;;;;5094207;28;20087;-61
2022/05/18 05:30:47;;;;;;;51.53;47.35;;;17.00;99.90;;;;;;5123031;27;20509;-61
2022/05/18 05:33:13;;;;;;;50.92;47.50;;;17.10;99.90;;;;;;5134174;27;20043;-61
2022/05/18 05:35:41;;;;;;;53.55;50.15;;;17.10;99.90;;;;;;5114516;27;20051;-61
2022/05/18 05:38:08;;;;;;;52.88;49.63;;;17.20;99.90;;;;;;5133811;27;20386;-61
2022/05/18 05:40:34;;;;;;;54.38;50.95;;;17.30;99.90;;;;;;5133368;27;20055;-61
2022/05/18 05:43:06;;;;;;;53.60;50.35;;;17.30;99.90;;;;;;5132516;27;20055;-61
2022/05/18 05:45:31;;;;;;;54.15;51.05;;;17.30;99.90;;;;;;5115209;28;20076;-61
2022/05/18 05:47:58;;;;;;;53.72;50.60;;;17.40;99.90;;;;;;5133062;27;20078;-61
2022/05/18 05:50:25;;;;;;;55.90;52.67;;;17.40;99.90;;;;;;5132698;28;20058;-61
2022/05/18 05:52:51;;;;;;;57.47;54.00;;;17.60;99.90;;;;;;5133333;27;20047;-61
2022/05/18 05:55:17;;;;;;;58.00;54.55;;;17.80;99.90;;;;;;5098297;28;20409;-61
2022/05/18 05:57:43;;;;;;;64.63;60.58;;;18.00;99.90;;;;;;5132325;28;20047;-61
2022/05/18 06:00:09;;;;;;;61.00;57.38;;;18.10;99.90;;;;;;5133876;28;20057;-61
2022/05/18 06:02:43;;;;;;;63.90;60.08;;;18.30;99.90;;;;;;5133790;28;20054;-61
2022/05/18 06:05:09;;;;;;;56.42;52.92;;;18.40;99.90;;;;;;5131864;28;20043;-61
2022/05/18 06:07:35;;;;;;;56.58;53.13;;;18.50;99.90;;;;;;5133663;28;20043;-61
2022/05/18 06:10:00;;;;;;;50.58;47.55;;;18.60;99.90;;;;;;5133685;28;20099;-62
2022/05/18 06:12:28;;;;;;;59.88;56.55;;;18.80;99.90;;;;;;5132759;28;20435;-62
2022/05/18 06:14:53;;;;;;;64.00;60.53;;;18.90;99.90;;;;;;5133282;28;20100;-61
2022/05/18 06:17:20;;;;;;;63.53;60.28;;;19.00;99.90;;;;;;5132215;28;20039;-62
2022/05/18 06:19:45;;;;;;;59.60;55.83;;;19.10;99.90;;;;;;5132495;28;20130;-62
2022/05/18 06:22:11;;;;;;;56.45;53.10;;;19.20;99.90;;;;;;5133237;28;20070;-62
2022/05/18 06:24:37;;;;;;;58.22;54.83;;;19.20;99.90;;;;;;5113783;28;20054;-61
2022/05/18 06:27:03;;;;;;;55.05;52.00;;;19.30;99.90;;;;;;5114577;28;20035;-62
2022/05/18 06:29:29;;;;;;;55.53;52.28;;;19.40;99.90;;;;;;5133292;28;20407;-61
2022/05/18 06:31:56;;;;;;;64.93;61.38;;;19.60;99.90;;;;;;5113958;28;20074;-62
2022/05/18 06:34:22;;;;;;;69.82;66.13;;;19.70;99.90;;;;;;5132981;28;20043;-62
2022/05/18 06:36:49;;;;;;;66.07;62.72;;;19.80;99.90;;;;;;5133233;28;20107;-62
2022/05/18 06:39:18;;;;;;;66.28;62.78;;;19.90;99.90;;;;;;5131526;28;20047;-62
2022/05/18 06:41:45;;;;;;;69.25;65.72;;;20.00;99.90;;;;;;5113978;28;20099;-62
2022/05/18 06:44:11;;;;;;;67.65;64.07;;;20.00;99.90;;;;;;5132615;28;20078;-62
2022/05/18 06:46:38;;;;;;;66.75;63.05;;;20.10;99.90;;;;;;5096756;28;20050;-61
2022/05/18 06:49:05;;;;;;;67.28;63.50;;;20.20;99.90;;;;;;5132174;28;20472;-62
2022/05/18 06:51:34;;;;;;;59.15;55.90;;;20.20;99.90;;;;;;5131846;28;20075;-62
2022/05/18 06:54:00;;;;;;;57.47;54.13;;;20.30;99.90;;;;;;5113259;28;20393;-62
2022/05/18 06:56:29;;;;;;;57.75;54.17;;;20.40;99.90;;;;;;5113917;28;20419;-62
2022/05/18 06:58:55;;;;;;;56.80;53.70;;;20.50;99.90;;;;;;5132809;28;20065;-62
2022/05/18 07:01:23;;;;;;;52.90;49.60;;;20.60;99.90;;;;;;5132380;28;20048;-61
2022/05/18 07:03:49;;;;;;;49.65;46.67;;;20.80;99.90;;;;;;5132815;27;20091;-62
2022/05/18 07:06:18;;;;;;;49.85;46.85;;;20.90;99.90;;;;;;5136401;27;20046;-62
2022/05/18 07:08:43;;;;;;;55.38;52.25;;;21.00;99.90;;;;;;5113495;28;20036;-62
2022/05/18 07:11:09;;;;;;;57.03;53.92;;;21.00;99.90;;;;;;5115785;28;20054;-62
2022/05/18 07:13:36;;;;;;;61.22;57.95;;;21.00;99.90;;;;;;5115303;28;20494;-62
2022/05/18 07:16:03;;;;;;;57.00;54.03;;;21.10;99.90;;;;;;5123456;27;20054;-62
2022/05/18 07:18:30;;;;;;;64.65;61.25;;;21.20;99.90;;;;;;5136181;27;20051;-62
2022/05/18 07:20:58;;;;;;;60.63;57.10;;;21.30;99.90;;;;;;5135768;27;20100;-62
2022/05/18 07:23:25;;;;;;;55.88;52.63;;;21.40;99.90;;;;;;5117963;27;20129;-62
2022/05/18 07:25:53;;;;;;;43.00;40.45;;;21.50;99.90;;;;;;5135835;27;20073;-62
2022/05/18 07:28:19;;;;;;;42.80;39.58;;;21.60;99.90;;;;;;5135654;27;20047;-62
2022/05/18 07:30:45;;;;;;;43.25;40.55;;;21.60;99.90;;;;;;5136267;27;20043;-62
2022/05/18 07:33:11;;;;;;;48.03;45.08;;;21.70;99.90;;;;;;5135666;27;20043;-62
2022/05/18 07:35:36;;;;;;;50.45;47.15;;;21.80;99.90;;;;;;5122169;27;20400;-62
2022/05/18 07:38:02;;;;;;;82.82;78.57;;;22.00;99.90;;;;;;5135642;27;20031;-62
2022/05/18 07:40:29;;;;;;;74.85;70.82;;;22.10;99.90;;;;;;5128733;27;20652;-62
2022/05/18 07:42:56;;;;;;;96.75;91.88;;;22.20;99.90;;;;;;5120046;27;20527;-62
2022/05/18 07:45:23;;;;;;;85.05;80.53;;;22.40;99.90;;;;;;5132491;27;20505;-62
2022/05/18 07:47:52;;;;;;;65.03;60.92;;;22.50;99.90;;;;;;5134973;27;20477;-62
2022/05/18 07:50:19;;;;;;;65.10;61.08;;;22.60;99.90;;;;;;5134512;27;20385;-62
2022/05/18 07:52:44;;;;;;;76.72;72.78;;;22.70;99.90;;;;;;5128940;27;20052;-62
2022/05/18 07:55:10;;;;;;;61.00;57.65;;;22.80;99.90;;;;;;5099290;28;20047;-62
2022/05/18 07:57:36;;;;;;;65.38;61.80;;;22.90;99.90;;;;;;5094507;28;20140;-62
2022/05/18 08:00:03;;;;;;;58.70;55.28;;;23.10;99.90;;;;;;5120006;27;20043;-62
2022/05/18 08:02:37;;;;;;;50.42;47.38;;;23.30;99.90;;;;;;5096072;28;20055;-62
2022/05/18 08:05:04;;;;;;;49.42;46.45;;;23.30;99.90;;;;;;5126094;27;20039;-62
2022/05/18 08:07:30;;;;;;;48.22;45.40;;;23.40;99.90;;;;;;5135437;27;20389;-62
2022/05/18 08:15:24;;;;;;;45.55;42.88;;;23.50;99.90;;;;;;5116390;27;20062;-62
2022/05/18 08:17:50;;;;;;;47.65;44.70;;;23.50;99.90;;;;;;5133549;27;20037;-62
2022/05/18 08:20:19;;;;;;;46.60;43.58;;;23.50;99.90;;;;;;5112664;28;20572;-62
2022/05/18 08:22:46;;;;;;;46.90;44.00;;;23.70;99.90;;;;;;5114700;28;20054;-62
2022/05/18 08:25:13;;;;;;;47.35;44.38;;;23.90;99.90;;;;;;5112324;28;20047;-62
2022/05/18 08:27:42;;;;;;;53.63;50.33;;;24.00;99.90;;;;;;5122229;27;20177;-62
2022/05/18 08:30:11;;;;;;;52.88;49.65;;;24.20;99.90;;;;;;5132747;27;20175;-62
2022/05/18 08:32:37;;;;;;;55.40;52.17;;;24.20;99.90;;;;;;5133772;27;20043;-62
2022/05/18 08:35:04;;;;;;;62.50;59.17;;;24.30;99.90;;;;;;5135025;27;20049;-62
2022/05/18 08:37:29;;;;;;;73.43;69.22;;;24.30;99.90;;;;;;5114007;27;20126;-62
2022/05/18 08:39:55;;;;;;;74.40;70.78;;;24.40;99.90;;;;;;5133525;27;20165;-62
2022/05/18 08:42:22;;;;;;;67.72;64.07;;;24.50;99.90;;;;;;5134520;27;20050;-62
2022/05/18 08:44:50;;;;;;;77.80;73.90;;;24.60;99.90;;;;;;5120149;27;20035;-62
2022/05/18 08:47:34;;;;;;;70.40;66.82;;;24.60;99.90;;;;;;5133850;27;20043;-62
2022/05/18 08:50:05;;;;;;;68.07;64.25;;;24.70;99.90;;;;;;5134267;27;20082;-62
2022/05/18 08:52:59;;;;;;;65.43;62.13;;;25.00;99.90;;;;;;5115458;27;20106;-62
2022/05/18 08:55:37;;;;;;;69.55;66.18;;;25.10;99.50;;;;;;5110998;28;20043;-62
2022/05/18 08:58:08;;;;;;;70.68;67.10;;;25.10;99.90;;;;;;5113972;28;20382;-62
2022/05/18 09:00:38;;;;;;;64.18;60.88;;;25.10;99.90;;;;;;5111867;28;20047;-62
2022/05/18 09:03:17;;;;;;;62.63;59.17;;;25.10;99.90;;;;;;5130433;27;20043;-62
2022/05/18 09:05:57;;;;;;;67.95;64.38;;;25.30;99.60;;;;;;5133427;27;20390;-62
2022/05/18 09:08:27;;;;;;;63.42;59.90;;;;;;;;;;5097640;27;20051;-62
2022/05/18 09:10:53;;;;;;;57.20;54.05;;;;;;;;;;5133326;27;20043;-62
2022/05/18 09:13:20;;;;;;;51.33;48.25;;;25.90;99.90;;;;;;5127064;27;20048;-63
2022/05/18 09:16:09;;;;;;;49.08;46.30;;;25.90;99.80;;;;;;5128165;27;20522;-62
2022/05/18 09:18:44;;;;;;;46.08;43.33;;;25.90;99.90;;;;;;5134292;27;20524;-63
2022/05/18 09:21:31;;;;;;;41.40;38.60;;;26.10;99.90;;;;;;5124468;27;20035;-62
2022/05/18 09:24:11;;;;;;;41.55;39.15;;;26.30;98.60;;;;;;5132978;27;20051;-62
2022/05/18 09:26:55;;;;;;;38.60;35.72;;;26.30;99.10;;;;;;5133227;27;20129;-62
2022/05/18 09:29:36;;;;;;;36.08;33.90;;;26.40;98.10;;;;;;5130863;27;20071;-62
2022/05/18 09:32:08;;;;;;;35.75;33.47;;;26.50;97.80;;;;;;5133484;27;20420;-62
2022/05/18 09:34:58;;;;;;;35.70;33.40;;;26.70;98.50;;;;;;5132678;27;20358;-63
2022/05/18 09:37:33;;;;;;;40.60;38.15;;;26.90;98.80;;;;;;5133421;27;20047;-62
2022/05/18 09:40:06;;;;;;;40.03;37.65;;;27.00;98.80;;;;;;5112944;28;20401;-62
2022/05/18 09:42:37;;;;;;;39.35;37.05;;;27.10;97.20;;;;;;5115398;28;20085;-62
2022/05/18 09:45:09;;;;;;;37.78;35.60;;;27.30;97.40;;;;;;5133509;27;20043;-63
2022/05/18 09:47:52;;;;;;;40.15;37.83;;;27.40;97.10;;;;;;5132754;27;20122;-63
2022/05/18 09:50:18;;;;;;;38.60;36.40;;;27.70;97.10;;;;;;5132950;27;20051;-63
2022/05/18 09:52:46;;;;;;;35.20;33.10;;;27.80;95.40;;;;;;5133440;28;20519;-63
2022/05/18 09:55:17;;;;;;;34.58;32.50;;;27.70;93.70;;;;;;5132749;28;20497;-63
2022/05/18 09:58:01;;;;;;;35.55;33.42;;;27.80;92.60;;;;;;5133982;28;20039;-63
2022/05/18 10:00:31;;;;;;;32.33;30.42;;;28.00;93.70;;;;;;5133635;28;20122;-63
2022/05/18 10:08:46;;;;;;;33.00;30.85;;;28.20;90.40;;;;;;5113921;28;20052;-63
2022/05/18 10:11:16;;;;;;;31.42;29.67;;;28.20;91.00;;;;;;5111678;28;20092;-63
2022/05/18 10:14:09;;;;;;;33.40;31.58;;;28.30;90.10;;;;;;5110165;28;20144;-63
2022/05/18 10:16:41;;;;;;;35.65;33.53;;;28.40;88.40;;;;;;5113708;28;20043;-63
2022/05/18 10:19:19;;;;;;;38.28;36.17;;;28.50;87.10;;;;;;5133723;28;20069;-63
2022/05/18 10:21:56;;;;;;;36.60;34.67;;;28.50;81.80;;;;;;5132390;28;20040;-63
2022/05/18 10:24:29;;;;;;;40.67;38.22;;;28.90;80.30;;;;;;5119161;28;20047;-63
2022/05/18 10:27:22;;;;;;;45.65;43.30;;;29.30;81.40;;;;;;5133061;28;20051;-63
2022/05/18 10:30:03;;;;;;;52.33;49.78;;;;;;;;;;5132569;28;20046;-63
2022/05/18 10:32:31;;;;;;;64.35;61.25;;;30.30;73.80;;;;;;5132096;28;20098;-63
2022/05/18 10:34:58;;;;;;;57.03;54.08;;;30.80;71.00;;;;;;5133244;28;20142;-63
2022/05/18 10:37:38;;;;;;;51.60;48.78;;;31.20;70.50;;;;;;5132904;28;20035;-63
2022/05/18 10:40:11;;;;;;;48.35;45.40;;;31.80;68.40;;;;;;5135739;27;20051;-63
2022/05/18 10:42:49;;;;;;;41.97;39.85;;;32.60;67.20;;;;;;5137515;27;20047;-63
2022/05/18 10:45:32;;;;;;;38.15;36.17;;;32.90;62.80;;;;;;5136271;27;20058;-63
2022/05/18 10:48:04;;;;;;;37.08;35.10;;;32.60;55.80;;;;;;5137153;27;20062;-63
2022/05/18 10:50:38;;;;;;;38.03;35.92;;;32.10;55.30;;;;;;5136889;27;20051;-63
2022/05/18 10:53:15;;;;;;;37.28;35.38;;;32.10;53.40;;;;;;5135909;27;20043;-63
2022/05/18 10:55:56;;;;;;;41.30;38.88;;;31.50;52.90;;;;;;5118486;27;20051;-63
2022/05/18 10:58:26;;;;;;;42.15;40.00;;;31.50;53.90;;;;;;5114658;28;20497;-63
2022/05/18 11:00:56;;;;;;;42.85;40.40;;;31.30;57.50;;;;;;5115611;28;20040;-63
2022/05/18 11:03:39;;;;;;;46.35;43.88;;;31.30;54.70;;;;;;5116171;28;20501;-63
2022/05/18 11:06:10;;;;;;;46.40;44.08;;;31.50;56.30;;;;;;5127229;27;20118;-63
2022/05/18 11:08:37;;;;;;;46.53;43.92;;;32.10;55.70;;;;;;5118198;27;20039;-63
2022/05/18 11:11:08;;;;;;;41.88;39.40;;;32.60;54.30;;;;;;5118221;27;20062;-63
2022/05/18 11:13:38;;;;;;;39.05;36.83;;;33.10;54.50;;;;;;5136093;27;20074;-63
2022/05/18 11:16:17;;;;;;;37.63;35.30;;;33.50;53.70;;;;;;5136178;27;20130;-64
2022/05/18 11:19:02;;;;;;;35.80;33.83;;;33.50;53.40;;;;;;5136413;27;20432;-64
2022/05/18 11:21:48;;;;;;;35.35;33.22;;;33.80;53.60;;;;;;5135737;27;20051;-63
2022/05/18 11:24:23;;;;;;;34.17;32.28;;;34.00;52.30;;;;;;5136053;27;20501;-64
2022/05/18 11:27:13;;;;;;;34.17;32.28;;;34.10;53.40;;;;;;5135722;27;20425;-64
2022/05/18 11:30:07;;;;;;;33.65;31.40;;;34.00;53.90;;;;;;5135788;27;20058;-64
2022/05/18 11:32:57;;;;;;;35.00;33.00;;;33.60;51.80;;;;;;5115278;27;20055;-64
2022/05/18 11:35:34;;;;;;;33.17;31.20;;;33.40;52.20;;;;;;5115924;27;20061;-64
2022/05/18 11:38:16;;;;;;;33.83;32.05;;;33.20;53.70;;;;;;5133616;27;20031;-64
2022/05/18 11:41:00;;;;;;;32.65;30.70;;;32.70;54.40;;;;;;5132352;27;20063;-64
2022/05/18 11:43:57;;;;;;;35.17;32.90;;;32.60;56.00;;;;;;5132591;27;20046;-64
2022/05/18 11:46:38;;;;;;;33.17;31.48;;;32.90;55.90;;;;;;5136150;27;20039;-64
2022/05/18 11:49:10;;;;;;;35.15;32.55;;;33.70;53.80;;;;;;5135301;27;20051;-64
2022/05/18 11:51:42;;;;;;;33.03;31.08;;;34.00;54.90;;;;;;5134367;27;20039;-64
2022/05/18 11:54:15;;;;;;;33.67;31.73;;;34.40;52.60;;;;;;5135696;27;20077;-64
2022/05/18 11:57:01;;;;;;;34.17;32.05;;;34.80;52.70;;;;;;5135312;27;20046;-64
2022/05/18 11:59:53;;;;;;;34.42;32.40;;;33.80;52.00;;;;;;5135156;27;20036;-64
2022/05/18 12:02:42;;;;;;;36.50;34.40;;;32.70;53.80;;;;;;5134893;27;20054;-64
2022/05/18 12:05:17;;;;;;;41.22;38.90;;;32.00;54.70;;;;;;5135676;27;20047;-64
2022/05/18 12:08:02;;;;;;;42.15;39.78;;;31.90;56.50;;;;;;5135461;27;20050;-64
2022/05/18 12:10:41;;;;;;;42.25;40.05;;;32.00;57.70;;;;;;5114377;28;20039;-64
2022/05/18 12:13:16;;;;;;;41.72;39.53;;;32.80;57.20;;;;;;5124261;27;20126;-63
2022/05/18 12:16:01;;;;;;;40.22;38.25;;;32.90;55.20;;;;;;5114690;28;20108;-64
2022/05/18 12:18:32;;;;;;;38.22;36.05;;;33.10;56.20;;;;;;5128828;27;20130;-64
2022/05/18 12:21:03;;;;;;;35.27;32.90;;;34.20;55.50;;;;;;5133914;27;20092;-64
2022/05/18 12:23:35;;;;;;;33.60;31.67;;;34.90;53.40;;;;;;5131180;27;20098;-64
2022/05/18 12:26:01;;;;;;;36.58;34.33;;;34.70;51.80;;;;;;5115151;27;20044;-64
2022/05/18 12:28:28;;;;;;;38.67;35.80;;;33.80;54.70;;;;;;5134520;27;20099;-64
2022/05/18 12:30:55;;;;;;;41.78;39.05;;;32.90;57.70;;;;;;5133634;27;20046;-64
2022/05/18 12:33:24;;;;;;;41.03;38.40;;;32.00;59.70;;;;;;5131677;27;20070;-64
2022/05/18 12:36:03;;;;;;;41.78;38.45;;;31.60;60.80;;;;;;5134146;27;20035;-64
2022/05/18 12:38:38;;;;;;;46.30;42.88;;;31.20;62.00;;;;;;5133742;27;20042;-64
2022/05/18 12:41:10;;;;;;;53.75;50.47;;;30.70;62.80;;;;;;5131935;27;20044;-64
2022/05/18 12:43:50;;;;;;;55.33;51.85;;;30.20;64.60;;;;;;5134472;27;20046;-64
2022/05/18 12:46:15;;;;;;;60.80;57.00;;;29.80;65.40;;;;;;5115772;27;20388;-63
2022/05/18 12:48:42;;;;;;;66.25;62.45;;;29.40;66.80;;;;;;5134985;27;20039;-64
2022/05/18 12:51:16;;;;;;;71.18;67.00;;;29.10;68.80;;;;;;5133892;27;20054;-64
2022/05/18 12:53:50;;;;;;;59.45;55.22;;;28.70;70.90;;;;;;5134558;27;20035;-64
2022/05/18 12:56:16;;;;;;;53.42;49.50;;;28.40;70.00;;;;;;5134078;27;20081;-63